createdAt,value
2023-05-23T00:01:55.460Z,14.00
2023-05-23T00:04:41.341Z,13.91
2023-05-23T00:07:27.176Z,13.80
2023-05-23T00:10:13.981Z,13.76
2023-05-23T00:12:59.388Z,13.75
2023-05-23T00:15:45.769Z,13.73
2023-05-23T00:18:31.647Z,13.72
2023-05-23T00:21:17.673Z,13.70
2023-05-23T00:24:04.662Z,13.66
2023-05-23T00:26:50.198Z,13.63
2023-05-23T00:29:36.486Z,13.56
2023-05-23T00:32:22.068Z,13.53
2023-05-23T00:35:08.393Z,13.43
2023-05-23T00:37:54.328Z,13.35
2023-05-23T00:40:40.332Z,13.26
2023-05-23T00:43:25.863Z,13.21
2023-05-23T00:46:12.043Z,13.19
2023-05-23T00:48:57.851Z,13.20
2023-05-23T00:51:43.618Z,13.23
2023-05-23T00:54:33.853Z,13.15
2023-05-23T00:57:19.616Z,13.06
2023-05-23T01:00:08.822Z,12.99
2023-05-23T01:02:55.142Z,12.94
2023-05-23T01:05:40.890Z,12.89
2023-05-23T01:08:29.268Z,12.83
2023-05-23T01:11:33.339Z,12.80
2023-05-23T01:14:57.855Z,12.73
2023-05-23T01:17:58.817Z,12.58
2023-05-23T01:20:50.863Z,12.54
2023-05-23T01:23:55.985Z,12.50
2023-05-23T01:27:06.605Z,12.49
2023-05-23T01:29:57.664Z,12.44
2023-05-23T01:32:43.679Z,12.41
2023-05-23T01:35:30.380Z,12.38
2023-05-23T01:38:15.897Z,12.34
2023-05-23T01:41:01.228Z,12.35
2023-05-23T01:43:47.742Z,12.30
2023-05-23T01:46:35.905Z,12.26
2023-05-23T01:49:23.180Z,12.25
2023-05-23T01:52:11.643Z,12.25
2023-05-23T01:54:59.432Z,12.22
2023-05-23T01:57:49.812Z,12.19
2023-05-23T02:00:36.013Z,12.18
2023-05-23T02:03:22.269Z,12.15
2023-05-23T02:06:10.924Z,12.10
2023-05-23T02:08:56.312Z,12.04
2023-05-23T02:11:42.872Z,12.00
2023-05-23T02:14:28.663Z,11.95
2023-05-23T02:17:16.909Z,11.91
2023-05-23T02:20:02.893Z,11.93
2023-05-23T02:22:49.885Z,11.93
2023-05-23T02:25:35.374Z,11.95
2023-05-23T02:28:21.156Z,11.97
2023-05-23T02:31:08.250Z,11.96
2023-05-23T02:33:53.835Z,11.92
2023-05-23T02:36:39.522Z,11.91
2023-05-23T02:39:24.905Z,11.87
2023-05-23T02:42:10.925Z,11.87
2023-05-23T02:44:56.470Z,11.83
2023-05-23T02:47:42.107Z,11.77
2023-05-23T02:50:27.819Z,11.78
2023-05-23T02:53:13.444Z,11.81
2023-05-23T02:55:58.898Z,11.78
2023-05-23T02:58:44.841Z,11.77
2023-05-23T03:01:30.219Z,11.80
2023-05-23T03:04:16.254Z,11.78
2023-05-23T03:07:05.420Z,11.72
2023-05-23T03:09:53.152Z,11.72
2023-05-23T03:12:38.994Z,11.75
2023-05-23T03:15:24.943Z,11.75
2023-05-23T03:18:11.070Z,11.75
2023-05-23T03:20:57.126Z,11.78
2023-05-23T03:23:42.998Z,11.77
2023-05-23T03:26:28.660Z,11.65
2023-05-23T03:29:15.351Z,11.59
2023-05-23T03:32:02.506Z,11.55
2023-05-23T03:34:48.367Z,11.54
2023-05-23T03:37:34.762Z,11.58
2023-05-23T03:40:20.465Z,11.56
2023-05-23T03:43:07.192Z,11.58
2023-05-23T03:45:55.189Z,11.63
2023-05-23T03:48:40.685Z,11.65
2023-05-23T03:51:26.404Z,11.70
2023-05-23T03:54:12.189Z,11.74
2023-05-23T03:56:57.816Z,11.79
2023-05-23T03:59:43.585Z,11.78
2023-05-23T04:02:31.387Z,11.81
2023-05-23T04:05:17.312Z,11.87
2023-05-23T04:08:02.607Z,11.96
2023-05-23T04:10:49.147Z,12.03
2023-05-23T04:13:34.736Z,12.13
2023-05-23T04:16:20.269Z,12.22
2023-05-23T04:19:06.403Z,12.33
2023-05-23T04:21:52.446Z,12.45
2023-05-23T04:24:38.324Z,12.57
2023-05-23T04:27:26.162Z,12.68
2023-05-23T04:30:13.333Z,12.79
2023-05-23T04:33:02.219Z,12.91
2023-05-23T04:35:49.472Z,13.03
2023-05-23T04:38:35.713Z,13.14
2023-05-23T04:41:24.761Z,13.26
2023-05-23T04:44:37.690Z,13.37
2023-05-23T04:47:37.055Z,13.50
2023-05-23T04:50:26.317Z,13.63
2023-05-23T04:53:11.652Z,13.75
2023-05-23T04:55:57.683Z,13.87
2023-05-23T04:58:45.455Z,13.99
2023-05-23T05:01:32.389Z,14.11
2023-05-23T05:04:18.329Z,14.20
2023-05-23T05:07:04.321Z,14.27
2023-05-23T05:09:49.877Z,14.36
2023-05-23T05:12:36.547Z,14.42
2023-05-23T05:15:21.857Z,14.46
2023-05-23T05:18:12.397Z,14.50
2023-05-23T05:20:59.050Z,14.55
2023-05-23T05:23:44.783Z,14.64
2023-05-23T05:26:31.275Z,14.72
2023-05-23T05:29:16.951Z,14.80
2023-05-23T05:32:03.456Z,14.86
2023-05-23T05:34:49.619Z,14.90
2023-05-23T05:37:37.150Z,14.98
2023-05-23T05:40:23.036Z,15.03
2023-05-23T05:43:10.200Z,15.07
2023-05-23T05:45:56.391Z,15.11
2023-05-23T05:48:41.888Z,15.17
2023-05-23T05:51:30.458Z,15.24
2023-05-23T05:54:18.303Z,15.35
2023-05-23T05:57:05.150Z,15.47
2023-05-23T05:59:52.527Z,15.60
2023-05-23T06:02:39.295Z,15.75
2023-05-23T06:05:25.071Z,15.87
2023-05-23T06:08:10.483Z,15.98
2023-05-23T06:10:56.867Z,16.08
2023-05-23T06:13:43.704Z,16.17
2023-05-23T06:16:29.237Z,16.26
2023-05-23T06:19:14.962Z,16.34
2023-05-23T06:22:00.794Z,16.40
2023-05-23T06:24:46.933Z,16.47
2023-05-23T06:27:32.732Z,16.55
2023-05-23T06:30:18.223Z,16.62
2023-05-23T06:33:04.135Z,16.73
2023-05-23T06:35:49.841Z,16.84
2023-05-23T06:38:35.913Z,16.99
2023-05-23T06:41:22.786Z,17.10
2023-05-23T06:44:10.472Z,17.24
2023-05-23T06:46:59.388Z,17.40
2023-05-23T06:49:45.691Z,17.59
2023-05-23T06:52:31.237Z,17.78
2023-05-23T06:55:19.397Z,17.99
2023-05-23T06:58:07.759Z,18.20
2023-05-23T07:00:55.806Z,18.38
2023-05-23T07:03:45.948Z,18.54
2023-05-23T07:06:32.801Z,18.73
2023-05-23T07:09:19.833Z,18.98
2023-05-23T07:12:06.604Z,19.21
2023-05-23T07:14:54.470Z,19.46
2023-05-23T07:17:40.283Z,19.66
2023-05-23T07:20:26.453Z,19.86
2023-05-23T07:23:18.136Z,20.02
2023-05-23T07:26:05.093Z,20.13
2023-05-23T07:28:59.362Z,20.25
2023-05-23T07:31:46.112Z,20.30
2023-05-23T07:34:33.059Z,20.34
2023-05-23T07:37:20.703Z,20.37
2023-05-23T07:40:09.293Z,20.40
2023-05-23T07:42:55.894Z,20.47
2023-05-23T07:45:41.910Z,20.57
2023-05-23T07:48:27.685Z,20.64
2023-05-23T07:51:13.179Z,20.75
2023-05-23T07:53:58.787Z,20.82
2023-05-23T07:56:45.208Z,20.83
2023-05-23T07:59:31.791Z,20.81
2023-05-23T08:02:18.712Z,20.80
2023-05-23T08:05:05.002Z,20.78
2023-05-23T08:07:53.646Z,20.77
2023-05-23T08:10:40.275Z,20.80
2023-05-23T08:13:31.522Z,20.83
2023-05-23T08:16:55.643Z,20.84
2023-05-23T08:19:44.582Z,20.89
2023-05-23T08:22:30.701Z,20.89
2023-05-23T08:25:16.894Z,20.87
2023-05-23T08:28:02.501Z,20.86
2023-05-23T08:30:58.283Z,20.82
2023-05-23T08:33:44.824Z,20.86
2023-05-23T08:36:36.376Z,20.88
2023-05-23T08:39:23.910Z,20.87
2023-05-23T08:42:29.039Z,20.86
2023-05-23T08:45:16.374Z,20.87
2023-05-23T08:48:03.746Z,20.89
2023-05-23T08:50:53.360Z,20.94
2023-05-23T08:53:42.897Z,20.97
2023-05-23T08:56:29.125Z,21.04
2023-05-23T08:59:16.630Z,21.08
2023-05-23T09:02:07.608Z,21.15
2023-05-23T09:04:53.572Z,21.20
2023-05-23T09:07:48.028Z,21.25
2023-05-23T09:10:35.974Z,21.26
2023-05-23T09:13:23.048Z,21.25
2023-05-23T09:16:12.832Z,21.25
2023-05-23T09:19:13.176Z,21.25
2023-05-23T09:22:02.820Z,21.22
2023-05-23T09:24:58.453Z,21.24
2023-05-23T09:27:47.457Z,21.21
2023-05-23T09:30:34.702Z,21.19
2023-05-23T09:33:20.215Z,21.20
2023-05-23T09:36:07.514Z,21.13
2023-05-23T09:38:53.041Z,21.09
2023-05-23T09:41:39.084Z,21.05
2023-05-23T09:44:24.594Z,21.05
2023-05-23T09:47:10.183Z,20.99
2023-05-23T09:49:56.232Z,20.96
2023-05-23T09:52:41.572Z,20.93
2023-05-23T09:55:27.759Z,20.88
2023-05-23T09:58:14.411Z,20.83
2023-05-23T10:01:03.779Z,20.80
2023-05-23T10:03:51.927Z,20.73
2023-05-23T10:06:53.329Z,20.64
2023-05-23T10:09:40.419Z,20.62
2023-05-23T10:12:50.188Z,20.70
2023-05-23T10:15:40.339Z,20.77
2023-05-23T10:18:38.789Z,20.82
2023-05-23T10:21:32.180Z,20.89
2023-05-23T10:24:18.257Z,20.94
2023-05-23T10:27:04.266Z,20.94
2023-05-23T10:29:49.911Z,20.97
2023-05-23T10:32:38.941Z,21.06
2023-05-23T10:35:39.820Z,21.17
2023-05-23T10:38:58.763Z,21.29
2023-05-23T10:41:51.704Z,21.41
2023-05-23T10:44:37.573Z,21.45
2023-05-23T10:47:28.433Z,21.45
2023-05-23T10:50:15.972Z,21.42
2023-05-23T10:53:03.886Z,21.32
2023-05-23T10:55:49.884Z,21.19
2023-05-23T10:58:41.704Z,21.09
2023-05-23T11:01:27.507Z,20.99
2023-05-23T11:04:13.295Z,20.84
2023-05-23T11:06:59.149Z,20.78
2023-05-23T11:10:05.355Z,20.74
2023-05-23T11:13:06.338Z,20.72
2023-05-23T11:15:51.842Z,20.76
2023-05-23T11:18:38.126Z,20.83
2023-05-23T11:21:24.801Z,20.84
2023-05-23T11:24:10.632Z,20.88
2023-05-23T11:27:04.052Z,20.96
2023-05-23T11:30:00.698Z,21.00
2023-05-23T11:32:54.453Z,21.08
2023-05-23T11:35:44.408Z,21.09
2023-05-23T11:38:29.887Z,21.12
2023-05-23T11:41:15.839Z,21.13
2023-05-23T11:44:11.640Z,21.08
2023-05-23T11:47:04.794Z,21.13
2023-05-23T11:49:50.297Z,21.21
2023-05-23T11:52:36.240Z,21.27
2023-05-23T11:55:23.011Z,21.32
2023-05-23T11:58:11.137Z,21.40
2023-05-23T12:01:02.522Z,21.46
2023-05-23T12:03:50.620Z,21.53
2023-05-23T12:06:38.553Z,21.59
2023-05-23T12:09:23.809Z,21.61
2023-05-23T12:12:09.391Z,21.75
2023-05-23T12:14:58.315Z,21.91
2023-05-23T12:17:47.386Z,22.01
2023-05-23T12:20:35.763Z,22.05
2023-05-23T12:23:22.882Z,22.16
2023-05-23T12:26:10.375Z,22.33
2023-05-23T12:28:57.998Z,22.56
2023-05-23T12:31:43.541Z,22.68
2023-05-23T12:34:29.414Z,22.62
2023-05-23T12:37:19.684Z,22.53
2023-05-23T12:40:17.040Z,22.47
2023-05-23T12:43:02.590Z,22.57
2023-05-23T12:45:48.147Z,22.72
2023-05-23T12:48:34.306Z,22.90
2023-05-23T12:51:20.437Z,23.04
2023-05-23T12:54:06.628Z,23.15
2023-05-23T12:56:52.355Z,23.22
2023-05-23T12:59:37.746Z,23.14
2023-05-23T13:02:23.293Z,23.10
2023-05-23T13:05:09.464Z,23.08
2023-05-23T13:07:55.578Z,23.05
2023-05-23T13:10:41.203Z,23.02
2023-05-23T13:13:26.873Z,23.19
2023-05-23T13:16:12.946Z,23.37
2023-05-23T13:18:58.513Z,23.56
2023-05-23T13:21:44.758Z,23.75
2023-05-23T13:24:31.568Z,23.89
2023-05-23T13:27:18.479Z,23.97
2023-05-23T13:30:04.685Z,24.01
2023-05-23T13:32:51.957Z,24.15
2023-05-23T13:35:37.638Z,24.27
2023-05-23T13:38:24.799Z,24.41
2023-05-23T13:41:12.043Z,24.55
2023-05-23T13:43:57.307Z,24.58
2023-05-23T13:46:43.752Z,24.50
2023-05-23T13:49:29.520Z,24.50
2023-05-23T13:52:14.739Z,24.49
2023-05-23T13:55:01.741Z,24.45
2023-05-23T13:57:47.567Z,24.45
2023-05-23T14:00:32.864Z,24.38
2023-05-23T14:03:19.598Z,24.21
2023-05-23T14:06:05.328Z,24.13
2023-05-23T14:08:51.108Z,24.07
2023-05-23T14:11:36.924Z,24.00
2023-05-23T14:14:22.242Z,23.86
2023-05-23T14:17:07.722Z,23.58
2023-05-23T14:19:53.159Z,23.31
2023-05-23T14:22:38.618Z,23.16
2023-05-23T14:25:24.097Z,22.96
2023-05-23T14:28:09.549Z,22.83
2023-05-23T14:30:55.781Z,22.86
2023-05-23T14:33:41.577Z,22.98
2023-05-23T14:36:28.142Z,23.07
2023-05-23T14:39:14.480Z,23.24
2023-05-23T14:42:00.238Z,23.43
2023-05-23T14:44:45.883Z,23.50
2023-05-23T14:47:32.177Z,23.52
2023-05-23T14:50:17.558Z,23.54
2023-05-23T14:53:03.432Z,23.54
2023-05-23T14:55:48.834Z,23.44
2023-05-23T14:58:34.216Z,23.33
2023-05-23T15:01:19.528Z,22.95
2023-05-23T15:04:05.767Z,22.81
2023-05-23T15:06:51.393Z,22.82
2023-05-23T15:09:36.871Z,22.63
2023-05-23T15:12:22.412Z,22.34
2023-05-23T15:15:08.446Z,22.11
2023-05-23T15:17:53.974Z,21.97
2023-05-23T15:20:39.877Z,21.82
2023-05-23T15:23:25.718Z,21.62
2023-05-23T15:26:11.479Z,21.47
2023-05-23T15:28:56.985Z,21.38
2023-05-23T15:31:42.640Z,21.25
2023-05-23T15:34:28.309Z,21.07
2023-05-23T15:37:13.828Z,20.95
2023-05-23T15:39:59.107Z,20.89
2023-05-23T15:42:44.619Z,21.00
2023-05-23T15:45:30.351Z,21.16
2023-05-23T15:48:15.988Z,21.12
2023-05-23T15:51:01.635Z,21.04
2023-05-23T15:54:00.706Z,20.92
2023-05-23T15:56:47.312Z,20.83
2023-05-23T15:59:32.692Z,20.72
2023-05-23T16:02:19.321Z,20.70
2023-05-23T16:05:05.922Z,20.66
2023-05-23T16:07:51.659Z,20.62
2023-05-23T16:10:37.067Z,20.60
2023-05-23T16:13:22.626Z,20.53
2023-05-23T16:16:08.086Z,20.45
2023-05-23T16:18:54.270Z,20.39
2023-05-23T16:21:39.918Z,20.32
2023-05-23T16:24:28.299Z,20.25
2023-05-23T16:27:13.954Z,20.18
2023-05-23T16:29:59.557Z,20.12
2023-05-23T16:32:45.576Z,19.97
2023-05-23T16:35:31.020Z,19.86
2023-05-23T16:38:16.607Z,19.76
2023-05-23T16:41:01.798Z,19.63
2023-05-23T16:43:47.035Z,19.49
2023-05-23T16:46:33.824Z,19.36
2023-05-23T16:49:19.468Z,19.25
2023-05-23T16:52:05.150Z,19.14
2023-05-23T16:54:51.157Z,19.05
2023-05-23T16:57:36.637Z,18.94
2023-05-23T17:00:22.465Z,18.80
2023-05-23T17:03:08.220Z,18.73
2023-05-23T17:05:54.764Z,18.66
2023-05-23T17:08:40.536Z,18.57
2023-05-23T17:11:27.146Z,18.50
2023-05-23T17:14:12.879Z,18.45
2023-05-23T17:16:58.371Z,18.37
2023-05-23T17:19:44.231Z,18.28
2023-05-23T17:22:30.024Z,18.19
2023-05-23T17:25:15.561Z,18.13
2023-05-23T17:28:01.049Z,18.09
2023-05-23T17:30:46.656Z,18.01
2023-05-23T17:33:32.015Z,17.92
2023-05-23T17:36:18.015Z,17.89
2023-05-23T17:39:03.316Z,17.85
2023-05-23T17:41:49.075Z,17.78
2023-05-23T17:44:34.829Z,17.73
2023-05-23T17:47:21.606Z,17.65
2023-05-23T17:50:07.793Z,17.61
2023-05-23T17:52:53.569Z,17.54
2023-05-23T17:55:39.858Z,17.45
2023-05-23T17:58:26.195Z,17.39
2023-05-23T18:01:11.893Z,17.33
2023-05-23T18:03:57.555Z,17.26
2023-05-23T18:06:42.884Z,17.20
2023-05-23T18:09:28.764Z,17.12
2023-05-23T18:12:15.028Z,17.05
2023-05-23T18:15:01.306Z,16.96
2023-05-23T18:17:47.068Z,16.89
2023-05-23T18:20:33.015Z,16.82
2023-05-23T18:23:18.888Z,16.74
2023-05-23T18:26:04.456Z,16.65
2023-05-23T18:28:50.014Z,16.56
2023-05-23T18:31:35.601Z,16.49
2023-05-23T18:34:21.689Z,16.41
2023-05-23T18:37:07.251Z,16.33
2023-05-23T18:39:52.576Z,16.25
2023-05-23T18:42:38.396Z,16.19
2023-05-23T18:45:24.146Z,16.14
2023-05-23T18:48:10.221Z,16.08
2023-05-23T18:50:55.534Z,16.03
2023-05-23T18:53:44.171Z,15.96
2023-05-23T18:56:29.771Z,15.91
2023-05-23T18:59:17.030Z,15.82
2023-05-23T19:02:02.924Z,15.80
2023-05-23T19:04:49.005Z,15.76
2023-05-23T19:07:34.475Z,15.72
2023-05-23T19:10:19.953Z,15.68
2023-05-23T19:13:05.120Z,15.63
2023-05-23T19:15:51.560Z,15.57
2023-05-23T19:18:37.512Z,15.53
2023-05-23T19:21:23.111Z,15.47
2023-05-23T19:24:09.297Z,15.41
2023-05-23T19:26:56.312Z,15.36
2023-05-23T19:29:42.533Z,15.32
2023-05-23T19:32:28.450Z,15.27
2023-05-23T19:35:16.466Z,15.22
2023-05-23T19:38:02.413Z,15.16
2023-05-23T19:40:48.018Z,15.12
2023-05-23T19:43:33.331Z,15.07
2023-05-23T19:46:18.757Z,15.04
2023-05-23T19:49:04.243Z,15.02
2023-05-23T19:51:49.818Z,15.00
2023-05-23T19:54:35.684Z,14.96
2023-05-23T19:57:21.068Z,14.94
2023-05-23T20:00:10.509Z,14.93
2023-05-23T20:02:57.001Z,14.89
2023-05-23T20:05:43.051Z,14.85
2023-05-23T20:08:28.728Z,14.79
2023-05-23T20:11:14.260Z,14.76
2023-05-23T20:13:59.464Z,14.74
2023-05-23T20:16:45.015Z,14.70
2023-05-23T20:19:30.509Z,14.70
2023-05-23T20:22:16.977Z,14.70
2023-05-23T20:25:02.298Z,14.67
2023-05-23T20:27:47.646Z,14.66
2023-05-23T20:30:33.210Z,14.64
2023-05-23T20:33:19.283Z,14.60
2023-05-23T20:36:04.883Z,14.56
2023-05-23T20:38:52.736Z,14.53
2023-05-23T20:41:41.540Z,14.47
2023-05-23T20:44:27.159Z,14.42
2023-05-23T20:47:13.602Z,14.38
2023-05-23T20:49:59.255Z,14.34
2023-05-23T20:52:44.552Z,14.24
2023-05-23T20:55:30.357Z,14.20
2023-05-23T20:58:16.384Z,14.17
2023-05-23T21:01:02.046Z,14.11
2023-05-23T21:03:47.459Z,14.08
2023-05-23T21:06:34.271Z,14.08
2023-05-23T21:09:20.242Z,14.06
2023-05-23T21:12:05.924Z,14.04
2023-05-23T21:14:52.007Z,14.00
2023-05-23T21:17:37.817Z,13.96
2023-05-23T21:20:23.280Z,13.94
2023-05-23T21:23:09.044Z,13.91
2023-05-23T21:25:54.742Z,13.90
2023-05-23T21:28:40.113Z,13.89
2023-05-23T21:31:37.110Z,13.87
2023-05-23T21:34:24.476Z,13.84
2023-05-23T21:37:10.370Z,13.83
2023-05-23T21:39:56.109Z,13.79
2023-05-23T21:42:41.998Z,13.76
2023-05-23T21:45:27.607Z,13.73
2023-05-23T21:48:12.826Z,13.69
2023-05-23T21:50:58.324Z,13.66
2023-05-23T21:53:43.551Z,13.63
2023-05-23T21:56:29.177Z,13.60
2023-05-23T21:59:14.399Z,13.57
2023-05-23T22:02:00.185Z,13.54
2023-05-23T22:04:46.202Z,13.53
2023-05-23T22:07:31.952Z,13.52
2023-05-23T22:10:17.411Z,13.50
2023-05-23T22:13:04.852Z,13.48
2023-05-23T22:15:50.291Z,13.46
2023-05-23T22:18:51.571Z,13.42
2023-05-23T22:21:38.253Z,13.40
2023-05-23T22:24:24.072Z,13.38
2023-05-23T22:27:09.782Z,13.35
2023-05-23T22:29:55.154Z,13.34
2023-05-23T22:32:40.507Z,13.34
2023-05-23T22:35:26.020Z,13.30
2023-05-23T22:38:11.631Z,13.27
2023-05-23T22:40:57.551Z,13.25
2023-05-23T22:43:42.875Z,13.25
2023-05-23T22:46:28.357Z,13.23
2023-05-23T22:49:15.429Z,13.20
2023-05-23T22:52:01.417Z,13.15
2023-05-23T22:54:47.161Z,13.13
2023-05-23T22:57:32.984Z,13.10
2023-05-23T23:00:19.284Z,13.08
2023-05-23T23:03:05.829Z,13.07
2023-05-23T23:05:51.375Z,13.05
2023-05-23T23:08:37.798Z,13.03
2023-05-23T23:11:23.099Z,13.03
2023-05-23T23:14:08.482Z,13.02
2023-05-23T23:16:54.479Z,12.97
2023-05-23T23:19:41.293Z,12.94
2023-05-23T23:22:26.745Z,12.90
2023-05-23T23:25:12.055Z,12.90
2023-05-23T23:27:57.777Z,12.88
2023-05-23T23:30:44.094Z,12.83
2023-05-23T23:33:29.812Z,12.79
2023-05-23T23:36:15.814Z,12.76
2023-05-23T23:39:01.488Z,12.73
2023-05-23T23:41:48.391Z,12.70
2023-05-23T23:44:33.958Z,12.65
2023-05-23T23:47:19.281Z,12.59
2023-05-23T23:50:05.230Z,12.53
2023-05-23T23:52:50.679Z,12.46
2023-05-23T23:55:36.006Z,12.41
2023-05-23T23:58:22.012Z,12.36
